Time;durP1;ratioP1;P1;durP2;ratioP2;P2;SDS_P1;SDS_P2;PMS_P1;PMS_P2;Temp;Humidity;BMP_temperature;BMP_pressure;BME280_temperature;BME280_humidity;BME280_pressure;Samples;Min_cycle;Max_cycle;Signal;HPM_P1;HPM_P2
2020/12/19 00:00:46;;;;;;;9.35;4.72;;;8.30;99.90;;;;;;5002506;28;20038;-55
2020/12/19 00:03:12;;;;;;;9.07;5.70;;;8.30;99.90;;;;;;4995279;28;20034;-50
2020/12/19 00:05:38;;;;;;;8.57;4.53;;;8.30;99.90;;;;;;4989716;28;20038;-51
2020/12/19 00:08:04;;;;;;;6.28;3.53;;;8.30;99.90;;;;;;5001977;28;20025;-47
2020/12/19 00:10:30;;;;;;;8.23;4.28;;;8.20;99.90;;;;;;5007717;28;20065;-49
2020/12/19 00:12:59;;;;;;;7.43;4.88;;;8.20;99.90;;;;;;5009106;28;20076;-49
2020/12/19 00:15:26;;;;;;;8.30;4.53;;;8.10;99.90;;;;;;5008161;28;20061;-53
2020/12/19 00:17:52;;;;;;;8.15;5.22;;;8.10;99.90;;;;;;5006596;28;20044;-49
2020/12/19 00:20:18;;;;;;;10.05;5.03;;;8.10;99.90;;;;;;5009349;28;20030;-55
2020/12/19 00:22:44;;;;;;;7.55;4.40;;;8.10;99.90;;;;;;5008246;28;20494;-55
2020/12/19 00:25:10;;;;;;;10.23;4.93;;;8.00;99.90;;;;;;5009008;28;20041;-55
2020/12/19 00:27:36;;;;;;;8.25;4.88;;;8.00;99.90;;;;;;5007919;28;20128;-49
2020/12/19 00:30:04;;;;;;;9.25;4.88;;;8.00;99.90;;;;;;5009223;28;20133;-49
2020/12/19 00:32:30;;;;;;;7.38;4.65;;;8.00;99.90;;;;;;5003735;28;20088;-52
2020/12/19 00:34:55;;;;;;;8.40;4.75;;;7.90;99.90;;;;;;5009148;28;20160;-52
2020/12/19 00:37:22;;;;;;;9.80;5.38;;;7.90;99.90;;;;;;5004822;28;20466;-51
2020/12/19 00:39:48;;;;;;;9.43;4.82;;;7.90;99.90;;;;;;5008846;28;20029;-52
2020/12/19 00:42:14;;;;;;;8.18;5.15;;;7.90;99.90;;;;;;5003455;28;20367;-53
2020/12/19 00:44:40;;;;;;;9.30;4.60;;;7.90;99.90;;;;;;5008595;28;20081;-51
2020/12/19 00:47:05;;;;;;;8.07;5.63;;;7.90;99.90;;;;;;5004923;28;20118;-51
2020/12/19 00:49:31;;;;;;;7.72;4.68;;;7.90;99.90;;;;;;5006980;28;20036;-49
2020/12/19 00:51:57;;;;;;;8.02;4.45;;;7.90;99.90;;;;;;5004309;28;20041;-52
2020/12/19 00:54:22;;;;;;;10.48;5.10;;;7.90;99.90;;;;;;5008711;28;20034;-51
2020/12/19 00:56:51;;;;;;;8.57;5.68;;;7.90;99.90;;;;;;5004432;28;20076;-52
2020/12/19 00:59:17;;;;;;;8.43;4.75;;;7.80;99.90;;;;;;5008699;28;20161;-51
2020/12/19 01:01:42;;;;;;;9.77;5.15;;;7.80;99.90;;;;;;5002596;28;20129;-52
2020/12/19 01:04:08;;;;;;;8.20;4.40;;;7.70;99.90;;;;;;4989153;28;20034;-53
2020/12/19 01:06:34;;;;;;;13.77;5.95;;;7.70;99.90;;;;;;4992404;28;20030;-50
2020/12/19 01:09:01;;;;;;;10.85;5.43;;;7.70;99.90;;;;;;5004520;28;20045;-50
2020/12/19 01:11:28;;;;;;;9.43;5.50;;;7.70;99.90;;;;;;5007631;28;20579;-55
2020/12/19 01:13:54;;;;;;;7.70;4.30;;;7.80;99.90;;;;;;5008991;28;20112;-54
2020/12/19 01:16:22;;;;;;;8.60;4.78;;;7.80;99.90;;;;;;5007149;28;20049;-54
2020/12/19 01:18:51;;;;;;;9.20;5.28;;;7.80;99.90;;;;;;5005916;28;20026;-50
2020/12/19 01:21:19;;;;;;;7.57;5.00;;;7.80;99.90;;;;;;5007956;28;20077;-53
2020/12/19 01:23:46;;;;;;;11.00;5.05;;;7.90;99.90;;;;;;5007948;28;20087;-53
2020/12/19 01:26:12;;;;;;;8.80;4.97;;;7.90;99.90;;;;;;5008426;28;20038;-50
2020/12/19 01:28:38;;;;;;;7.82;4.78;;;7.90;99.90;;;;;;5007562;28;20053;-54
2020/12/19 01:31:05;;;;;;;9.05;5.15;;;7.80;99.90;;;;;;5006879;28;20038;-53
2020/12/19 01:33:32;;;;;;;8.50;4.95;;;7.90;99.90;;;;;;4991594;28;20062;-47
2020/12/19 01:35:58;;;;;;;7.82;4.30;;;7.80;99.90;;;;;;4989378;28;20125;-53
2020/12/19 01:38:24;;;;;;;7.65;5.32;;;7.80;99.90;;;;;;5008283;28;20030;-54
2020/12/19 01:40:51;;;;;;;8.27;5.40;;;7.80;99.90;;;;;;5008593;28;20105;-52
2020/12/19 01:43:18;;;;;;;8.50;5.05;;;7.80;99.90;;;;;;5004668;28;20064;-51
2020/12/19 01:45:44;;;;;;;9.52;4.57;;;7.80;99.90;;;;;;5009705;28;20042;-51
2020/12/19 01:48:21;;;;;;;7.72;5.18;;;7.90;99.90;;;;;;5006240;28;20042;-50
2020/12/19 01:50:48;;;;;;;7.28;4.78;;;7.90;99.90;;;;;;5011720;28;20042;-54
2020/12/19 01:53:22;;;;;;;8.80;5.03;;;7.90;99.90;;;;;;5009264;28;20034;-55
2020/12/19 01:55:52;;;;;;;10.65;5.78;;;7.90;99.90;;;;;;5011685;28;20084;-54
2020/12/19 01:58:19;;;;;;;6.68;4.95;;;7.90;99.90;;;;;;5007278;28;20426;-53
2020/12/19 02:00:45;;;;;;;7.28;5.50;;;7.90;99.90;;;;;;5011541;28;20033;-53
2020/12/19 02:03:11;;;;;;;9.15;5.35;;;7.80;99.90;;;;;;5010658;28;20038;-53
2020/12/19 02:05:41;;;;;;;12.18;6.53;;;7.80;99.90;;;;;;5011253;28;20497;-54
2020/12/19 02:08:08;;;;;;;10.20;5.65;;;7.80;99.90;;;;;;5008573;28;20121;-55
2020/12/19 02:10:35;;;;;;;9.80;5.53;;;7.80;99.90;;;;;;5011553;28;20038;-54
2020/12/19 02:13:03;;;;;;;12.18;6.35;;;7.70;99.90;;;;;;5009428;28;20042;-49
2020/12/19 02:15:45;;;;;;;10.02;5.53;;;7.70;99.90;;;;;;5011334;28;20033;-54
2020/12/19 02:18:12;;;;;;;9.15;5.50;;;7.70;99.90;;;;;;5006787;28;20061;-53
2020/12/19 02:20:38;;;;;;;7.82;5.13;;;7.70;99.90;;;;;;5011108;28;20091;-54
2020/12/19 02:23:06;;;;;;;7.72;4.95;;;7.70;99.90;;;;;;5006565;28;20037;-52
2020/12/19 02:25:37;;;;;;;11.95;5.32;;;7.80;99.90;;;;;;5010940;28;20038;-50
2020/12/19 02:28:06;;;;;;;9.38;5.00;;;7.90;99.90;;;;;;5006648;28;20494;-49
2020/12/19 02:30:37;;;;;;;7.90;4.05;;;7.90;99.90;;;;;;5010921;28;20478;-52
2020/12/19 02:33:03;;;;;;;8.80;4.63;;;7.90;99.90;;;;;;5006876;28;20379;-51
2020/12/19 02:35:29;;;;;;;6.18;4.18;;;7.80;99.90;;;;;;5010930;28;20026;-56
2020/12/19 02:37:55;;;;;;;8.63;4.78;;;7.80;99.90;;;;;;5006425;28;20088;-50
2020/12/19 02:40:21;;;;;;;8.95;5.00;;;7.80;99.90;;;;;;5010872;28;20045;-52
2020/12/19 02:42:47;;;;;;;8.75;5.05;;;7.90;99.90;;;;;;5006843;28;20457;-49
2020/12/19 02:45:13;;;;;;;9.20;4.60;;;7.90;99.90;;;;;;5010574;28;20069;-53
2020/12/19 02:47:39;;;;;;;6.32;4.35;;;7.80;99.90;;;;;;5008425;28;20034;-52
2020/12/19 02:50:06;;;;;;;11.18;5.53;;;7.90;99.90;;;;;;5010884;28;20026;-50
2020/12/19 02:52:32;;;;;;;19.38;7.30;;;7.90;99.90;;;;;;5006209;28;20037;-47
2020/12/19 02:54:58;;;;;;;13.07;5.68;;;7.90;99.90;;;;;;5009968;28;20481;-51
2020/12/19 02:57:24;;;;;;;16.95;7.82;;;7.80;99.90;;;;;;5009597;28;20036;-53
2020/12/19 02:59:50;;;;;;;9.45;4.60;;;7.70;99.90;;;;;;5010399;28;20112;-54
2020/12/19 03:02:16;;;;;;;9.40;4.72;;;7.60;99.90;;;;;;5006177;28;20519;-54
2020/12/19 03:04:41;;;;;;;9.90;5.03;;;7.60;99.90;;;;;;5010344;28;20064;-51
2020/12/19 03:07:07;;;;;;;9.23;5.30;;;7.70;99.90;;;;;;5008870;28;20037;-47
2020/12/19 03:09:33;;;;;;;9.20;4.88;;;7.60;99.90;;;;;;5010532;28;20329;-53
2020/12/19 03:12:02;;;;;;;7.47;4.18;;;7.60;99.90;;;;;;5005942;28;20037;-53
2020/12/19 03:14:28;;;;;;;7.75;4.35;;;7.50;99.90;;;;;;5010039;28;20758;-49
2020/12/19 03:16:54;;;;;;;7.07;4.28;;;7.50;99.90;;;;;;5009299;28;20053;-52
2020/12/19 03:19:20;;;;;;;7.05;4.30;;;7.60;99.90;;;;;;5010201;28;20040;-52
2020/12/19 03:24:15;;;;;;;7.90;4.85;;;7.60;99.90;;;;;;4987332;28;20402;-55
2020/12/19 03:26:41;;;;;;;7.18;3.78;;;7.70;99.90;;;;;;4990804;28;20038;-52
2020/12/19 03:29:07;;;;;;;7.25;4.30;;;7.70;99.90;;;;;;4990240;28;20480;-48
2020/12/19 03:31:33;;;;;;;9.60;4.80;;;7.70;99.90;;;;;;4990480;28;20121;-48
2020/12/19 03:33:58;;;;;;;4.93;3.65;;;7.60;99.90;;;;;;4990249;28;20030;-53
2020/12/19 03:36:24;;;;;;;7.55;4.53;;;7.70;99.90;;;;;;4990270;28;20397;-50
2020/12/19 03:38:50;;;;;;;8.40;3.80;;;7.60;99.90;;;;;;4989921;28;20041;-48
2020/12/19 03:41:16;;;;;;;9.60;4.68;;;7.60;99.90;;;;;;4989967;28;20064;-52
2020/12/19 03:43:41;;;;;;;7.20;4.63;;;7.60;99.90;;;;;;4990155;28;20085;-48
2020/12/19 03:46:07;;;;;;;9.43;4.72;;;7.70;99.90;;;;;;4990033;28;20026;-51
2020/12/19 03:48:33;;;;;;;11.20;4.40;;;7.70;99.90;;;;;;4990080;28;20042;-54
2020/12/19 03:50:59;;;;;;;9.18;4.60;;;7.70;99.90;;;;;;4989939;28;20060;-55
2020/12/19 03:53:25;;;;;;;8.55;4.55;;;7.80;99.90;;;;;;4989821;28;20034;-54
2020/12/19 03:55:51;;;;;;;7.75;4.40;;;7.80;99.90;;;;;;4989910;28;20036;-51
2020/12/19 03:58:16;;;;;;;10.23;5.65;;;7.70;99.90;;;;;;4990033;28;20026;-53
2020/12/19 04:00:42;;;;;;;8.30;5.28;;;7.60;99.90;;;;;;4989867;28;20034;-50
2020/12/19 04:03:08;;;;;;;10.82;5.82;;;7.60;99.90;;;;;;4989817;28;20066;-50
2020/12/19 04:05:34;;;;;;;11.60;6.93;;;7.50;99.90;;;;;;4989640;28;20042;-48
2020/12/19 04:07:59;;;;;;;9.10;4.82;;;7.50;99.90;;;;;;4989603;28;20414;-50
2020/12/19 04:10:25;;;;;;;8.43;5.05;;;7.60;99.90;;;;;;4990037;28;20438;-50
2020/12/19 04:12:51;;;;;;;11.63;4.65;;;7.70;99.90;;;;;;4989888;28;20030;-48
2020/12/19 04:15:22;;;;;;;6.75;4.53;;;7.70;99.90;;;;;;4989777;28;20406;-49
2020/12/19 04:17:52;;;;;;;7.50;4.25;;;7.70;99.90;;;;;;4989536;28;20482;-47
2020/12/19 04:20:18;;;;;;;10.10;5.20;;;7.70;99.90;;;;;;4989658;28;20118;-48
2020/12/19 04:22:44;;;;;;;6.18;3.95;;;7.70;99.90;;;;;;4987933;28;20054;-50
2020/12/19 04:25:10;;;;;;;9.68;4.95;;;7.70;99.90;;;;;;4989454;28;20045;-48
2020/12/19 04:27:39;;;;;;;6.25;4.32;;;7.60;99.90;;;;;;4989339;28;20030;-48
2020/12/19 04:30:06;;;;;;;8.35;4.38;;;7.60;99.90;;;;;;4989382;28;20026;-50
2020/12/19 04:32:33;;;;;;;9.35;5.10;;;7.60;99.90;;;;;;4989569;28;20034;-49
2020/12/19 04:34:58;;;;;;;9.55;4.55;;;7.60;99.90;;;;;;4989212;28;20484;-55
2020/12/19 04:37:24;;;;;;;7.78;5.32;;;7.60;99.90;;;;;;4989114;28;20113;-56
2020/12/19 04:39:51;;;;;;;6.50;4.45;;;7.60;99.90;;;;;;4989396;28;20212;-55
2020/12/19 04:42:16;;;;;;;8.75;4.30;;;7.60;99.90;;;;;;4989270;28;20045;-54
2020/12/19 04:44:42;;;;;;;7.95;4.72;;;7.60;99.90;;;;;;4989437;28;20026;-54
2020/12/19 04:47:08;;;;;;;9.45;4.78;;;7.60;99.90;;;;;;4989540;28;20049;-50
2020/12/19 04:49:36;;;;;;;7.07;4.50;;;7.60;99.90;;;;;;4989061;28;20438;-53
2020/12/19 04:52:03;;;;;;;9.00;5.20;;;7.60;99.90;;;;;;4989219;28;20044;-52
2020/12/19 04:54:29;;;;;;;8.85;5.03;;;7.60;99.90;;;;;;4989204;28;20168;-52
2020/12/19 04:56:55;;;;;;;13.77;6.68;;;7.60;99.90;;;;;;4989536;28;20137;-53
2020/12/19 04:59:21;;;;;;;16.45;5.88;;;7.60;99.90;;;;;;4989124;28;20159;-50
2020/12/19 05:01:47;;;;;;;10.27;5.60;;;7.60;99.90;;;;;;4989334;28;20030;-48
2020/12/19 05:04:14;;;;;;;8.00;4.75;;;7.70;99.90;;;;;;4989406;28;20038;-56
2020/12/19 05:06:40;;;;;;;8.82;5.70;;;7.60;99.90;;;;;;4989166;28;20048;-54
2020/12/19 05:09:06;;;;;;;7.28;4.70;;;7.60;99.90;;;;;;4989369;28;20049;-50
2020/12/19 05:11:31;;;;;;;7.75;4.25;;;7.60;99.90;;;;;;4989355;28;20027;-53
2020/12/19 05:13:57;;;;;;;9.13;4.82;;;7.60;99.90;;;;;;4989121;28;20611;-55
2020/12/19 05:16:23;;;;;;;10.93;5.90;;;7.60;99.90;;;;;;4989453;28;20462;-56
2020/12/19 05:18:49;;;;;;;12.48;6.18;;;7.60;99.90;;;;;;4992691;28;20061;-51
2020/12/19 05:21:15;;;;;;;13.93;7.20;;;7.60;99.90;;;;;;4993056;28;20124;-50
2020/12/19 05:23:44;;;;;;;9.75;5.93;;;7.60;99.90;;;;;;4992381;28;20042;-52
2020/12/19 05:26:11;;;;;;;16.33;7.97;;;7.60;99.90;;;;;;4992634;28;20034;-55
2020/12/19 05:28:40;;;;;;;22.33;12.25;;;7.60;99.90;;;;;;4993054;28;20109;-55
2020/12/19 05:31:07;;;;;;;28.80;13.50;;;7.60;99.90;;;;;;4992668;28;20057;-52
2020/12/19 05:33:40;;;;;;;18.92;10.10;;;7.50;99.90;;;;;;4992487;28;20045;-54
2020/12/19 05:36:17;;;;;;;9.60;5.93;;;7.50;99.90;;;;;;4992548;28;20030;-52
2020/12/19 05:38:43;;;;;;;11.02;5.43;;;7.50;99.90;;;;;;4992665;28;20065;-53
2020/12/19 05:41:11;;;;;;;9.43;5.50;;;7.50;99.90;;;;;;4992435;28;20535;-54
2020/12/19 05:43:46;;;;;;;7.20;4.40;;;7.50;99.90;;;;;;4992331;28;20052;-51
2020/12/19 05:46:32;;;;;;;7.55;5.18;;;7.50;99.90;;;;;;4992365;28;20030;-54
2020/12/19 05:49:00;;;;;;;9.52;4.82;;;7.50;99.90;;;;;;4992537;28;20073;-55
2020/12/19 05:51:31;;;;;;;11.48;5.38;;;7.50;99.90;;;;;;4992447;28;20109;-55
2020/12/19 05:54:12;;;;;;;8.30;4.95;;;7.50;99.90;;;;;;4992221;28;20096;-56
2020/12/19 05:56:42;;;;;;;6.63;4.68;;;7.50;99.90;;;;;;4992073;28;20031;-50
2020/12/19 05:59:16;;;;;;;8.88;5.30;;;7.50;99.90;;;;;;4992276;28;20119;-50
2020/12/19 06:01:44;;;;;;;10.45;5.13;;;7.50;99.90;;;;;;5001552;28;20119;-50
2020/12/19 06:04:11;;;;;;;8.48;5.25;;;7.50;99.90;;;;;;5003384;28;20050;-54
2020/12/19 06:06:39;;;;;;;9.60;6.53;;;7.50;99.90;;;;;;4991998;28;20359;-52
2020/12/19 06:09:06;;;;;;;7.85;5.18;;;7.50;99.90;;;;;;4990865;28;20034;-54
2020/12/19 06:11:47;;;;;;;8.80;4.78;;;7.50;99.90;;;;;;4990793;28;20109;-55
2020/12/19 06:14:18;;;;;;;10.52;4.60;;;7.50;99.90;;;;;;4991708;28;20030;-56
2020/12/19 06:16:45;;;;;;;9.57;5.13;;;7.50;99.90;;;;;;4990878;28;20057;-54
2020/12/19 06:19:32;;;;;;;9.50;5.10;;;7.50;99.90;;;;;;4990555;28;20030;-54
2020/12/19 06:21:59;;;;;;;8.95;5.60;;;7.50;99.90;;;;;;4988863;28;20045;-51
2020/12/19 06:24:47;;;;;;;11.00;5.07;;;7.50;99.90;;;;;;4989111;28;20084;-53
2020/12/19 06:27:18;;;;;;;8.40;4.97;;;7.50;99.90;;;;;;4990542;28;20030;-55
2020/12/19 06:29:44;;;;;;;7.90;5.45;;;7.40;99.90;;;;;;5001497;28;20487;-49
2020/12/19 06:32:22;;;;;;;11.05;5.93;;;7.40;99.90;;;;;;5008954;28;20036;-51
2020/12/19 06:35:09;;;;;;;12.63;5.63;;;7.40;99.90;;;;;;5011115;28;20030;-50
2020/12/19 06:37:36;;;;;;;;;;;7.40;99.90;;;;;;5002264;28;20133;-52
2020/12/19 06:40:09;;;;;;;9.48;5.80;;;7.40;99.90;;;;;;4990644;28;20411;-52
2020/12/19 06:42:34;;;;;;;12.55;5.05;;;7.40;99.90;;;;;;4990733;28;20426;-50
2020/12/19 06:45:20;;;;;;;10.88;5.80;;;7.40;99.90;;;;;;4991284;28;20077;-47
2020/12/19 06:47:46;;;;;;;9.70;5.50;;;7.40;99.90;;;;;;4997526;28;20037;-47
2020/12/19 06:50:12;;;;;;;12.43;5.10;;;7.40;99.90;;;;;;4995157;28;20033;-52
2020/12/19 06:52:38;;;;;;;10.90;5.85;;;7.40;99.90;;;;;;4989587;28;20035;-47
2020/12/19 06:55:25;;;;;;;9.68;5.53;;;7.50;99.90;;;;;;4990396;28;20034;-49
2020/12/19 06:57:52;;;;;;;8.30;6.07;;;7.50;99.90;;;;;;4990807;28;20026;-49
2020/12/19 07:00:20;;;;;;;10.40;5.38;;;7.60;99.90;;;;;;4989070;28;20042;-55
2020/12/19 07:02:54;;;;;;;8.30;5.10;;;7.60;99.90;;;;;;5003539;28;20026;-52
2020/12/19 07:05:39;;;;;;;15.73;5.68;;;7.60;99.90;;;;;;4993089;28;20523;-46
2020/12/19 07:08:22;;;;;;;11.30;5.90;;;7.60;99.90;;;;;;4991010;28;20061;-53
2020/12/19 07:10:49;;;;;;;9.95;5.47;;;7.60;99.90;;;;;;4984928;28;20034;-50
2020/12/19 07:13:15;;;;;;;8.88;5.65;;;7.60;99.90;;;;;;4990043;28;20042;-49
2020/12/19 07:15:44;;;;;;;13.55;5.53;;;7.60;99.90;;;;;;4989193;28;20049;-52
2020/12/19 07:18:33;;;;;;;10.57;6.20;;;7.60;99.90;;;;;;4990829;28;20041;-52
2020/12/19 07:21:05;;;;;;;10.52;6.22;;;7.60;99.90;;;;;;4971417;28;20046;-53
2020/12/19 07:23:33;;;;;;;9.65;5.93;;;7.60;99.90;;;;;;4972127;28;20059;-50
2020/12/19 07:25:59;;;;;;;8.98;5.70;;;7.60;99.90;;;;;;4989992;28;20046;-49
2020/12/19 07:28:26;;;;;;;13.90;6.75;;;7.70;99.90;;;;;;5010102;28;20048;-48
2020/12/19 07:30:52;;;;;;;9.52;6.20;;;7.60;99.90;;;;;;5010056;28;20092;-49
2020/12/19 07:33:18;;;;;;;12.90;6.50;;;7.70;99.90;;;;;;5008418;28;20474;-50
2020/12/19 07:35:43;;;;;;;8.40;5.63;;;7.70;99.90;;;;;;5010102;28;20033;-48
2020/12/19 07:38:10;;;;;;;11.93;6.18;;;7.70;99.90;;;;;;4990544;28;20026;-50
2020/12/19 07:40:36;;;;;;;10.95;5.72;;;7.80;99.90;;;;;;4988585;28;20033;-51
2020/12/19 07:43:07;;;;;;;11.85;6.68;;;7.80;99.90;;;;;;4988126;28;20026;-54
2020/12/19 07:45:34;;;;;;;11.32;6.07;;;7.80;99.90;;;;;;4999463;28;20046;-56
2020/12/19 07:48:00;;;;;;;10.63;7.00;;;7.80;99.90;;;;;;5009451;28;20033;-55
2020/12/19 07:50:28;;;;;;;11.43;6.70;;;7.80;99.90;;;;;;5007769;28;20061;-55
2020/12/19 07:53:00;;;;;;;10.18;6.78;;;7.80;99.90;;;;;;5009300;28;20045;-52
2020/12/19 07:55:26;;;;;;;12.52;7.38;;;7.90;99.90;;;;;;4995401;28;20041;-51
2020/12/19 07:57:55;;;;;;;13.75;7.05;;;7.90;99.90;;;;;;4988903;28;20394;-52
2020/12/19 08:00:22;;;;;;;10.43;6.70;;;7.90;99.90;;;;;;4994848;28;20081;-50
2020/12/19 08:02:48;;;;;;;11.27;6.22;;;8.00;99.90;;;;;;4990060;28;20037;-52
2020/12/19 08:05:13;;;;;;;10.63;7.03;;;8.00;99.90;;;;;;4999219;28;20046;-51
2020/12/19 08:07:39;;;;;;;13.48;6.35;;;8.00;99.90;;;;;;5007360;28;20072;-54
2020/12/19 08:10:07;;;;;;;10.02;6.32;;;7.90;99.90;;;;;;5009667;28;20486;-51
2020/12/19 08:12:34;;;;;;;13.93;8.20;;;7.90;99.90;;;;;;4988866;28;20034;-60
2020/12/19 08:15:03;;;;;;;10.77;6.38;;;7.90;99.90;;;;;;4989690;28;20393;-53
2020/12/19 08:17:31;;;;;;;14.43;7.38;;;7.90;99.90;;;;;;5006012;28;20042;-53
2020/12/19 08:19:58;;;;;;;12.30;7.07;;;7.90;99.90;;;;;;5004056;28;20034;-56
2020/12/19 08:22:24;;;;;;;13.05;7.85;;;7.90;99.90;;;;;;4996325;28;20136;-55
2020/12/19 08:24:52;;;;;;;13.55;7.72;;;8.00;99.90;;;;;;5009061;28;20473;-57
2020/12/19 08:27:36;;;;;;;15.20;7.40;;;8.00;99.90;;;;;;5006987;28;20105;-54
2020/12/19 08:30:06;;;;;;;12.07;7.25;;;8.00;99.90;;;;;;5007372;28;20489;-48
2020/12/19 08:32:32;;;;;;;14.15;7.43;;;8.00;99.90;;;;;;4988686;28;20042;-56
2020/12/19 08:34:59;;;;;;;14.10;8.65;;;8.00;99.90;;;;;;5008532;28;20104;-56
2020/12/19 08:37:25;;;;;;;13.00;7.95;;;8.10;99.90;;;;;;5007349;28;20037;-55
2020/12/19 08:40:10;;;;;;;15.43;7.90;;;8.10;99.90;;;;;;5009040;28;20180;-52
2020/12/19 08:42:38;;;;;;;17.92;8.50;;;8.10;99.90;;;;;;4990220;28;20440;-53
2020/12/19 08:45:32;;;;;;;24.52;10.20;;;8.10;99.90;;;;;;4989116;28;20476;-49
2020/12/19 08:48:08;;;;;;;20.20;10.43;;;8.10;99.90;;;;;;4988139;28;20048;-55
2020/12/19 08:50:40;;;;;;;21.23;11.98;;;8.10;99.90;;;;;;4987711;28;20038;-54
2020/12/19 08:53:07;;;;;;;21.40;9.88;;;8.20;99.90;;;;;;4979032;28;20026;-57
2020/12/19 08:55:33;;;;;;;27.40;10.00;;;8.20;99.90;;;;;;4994792;28;20031;-57
2020/12/19 08:57:59;;;;;;;27.13;9.18;;;8.20;99.90;;;;;;4992141;28;20058;-52
2020/12/19 09:00:25;;;;;;;24.48;9.85;;;8.20;99.90;;;;;;4989586;28;20048;-51
2020/12/19 09:02:51;;;;;;;17.15;8.63;;;8.20;99.90;;;;;;4980899;28;20030;-56
2020/12/19 09:05:30;;;;;;;16.33;8.43;;;8.30;99.90;;;;;;4984716;28;20047;-53
2020/12/19 09:07:57;;;;;;;16.00;7.28;;;8.30;99.90;;;;;;4978876;28;20034;-54
2020/12/19 09:10:28;;;;;;;13.23;7.72;;;8.30;99.90;;;;;;4988089;28;20089;-53
2020/12/19 09:13:08;;;;;;;14.43;7.32;;;8.30;99.90;;;;;;4984334;28;20062;-54
2020/12/19 09:15:34;;;;;;;13.95;7.40;;;8.30;99.90;;;;;;4983506;28;20394;-52
2020/12/19 09:18:18;;;;;;;17.77;8.95;;;8.30;99.90;;;;;;4977917;28;20031;-53
2020/12/19 09:20:49;;;;;;;17.33;8.57;;;8.40;99.90;;;;;;4985856;28;20061;-57
2020/12/19 09:23:15;;;;;;;12.35;8.20;;;8.40;99.90;;;;;;4990844;28;20101;-49
2020/12/19 09:25:40;;;;;;;13.65;7.70;;;8.40;99.90;;;;;;4991178;28;20420;-54
2020/12/19 09:28:06;;;;;;;19.30;9.20;;;8.40;99.90;;;;;;4978303;28;20441;-54
2020/12/19 09:30:32;;;;;;;19.13;9.93;;;8.50;99.90;;;;;;4990581;28;20048;-56
2020/12/19 09:32:58;;;;;;;19.23;8.60;;;8.60;99.90;;;;;;4985561;28;20097;-55
2020/12/19 09:35:28;;;;;;;14.88;7.40;;;8.60;99.90;;;;;;4993265;28;20474;-52
2020/12/19 09:37:55;;;;;;;15.93;8.07;;;8.60;99.90;;;;;;4992612;28;20085;-58
2020/12/19 09:40:21;;;;;;;13.98;7.28;;;8.70;99.90;;;;;;4979502;28;20122;-55
2020/12/19 09:42:47;;;;;;;11.60;7.43;;;8.70;99.90;;;;;;4977396;28;20166;-53
2020/12/19 09:45:13;;;;;;;13.60;7.03;;;8.70;99.90;;;;;;4990833;28;20120;-53
2020/12/19 09:47:41;;;;;;;14.73;7.80;;;8.80;99.90;;;;;;4990249;28;20030;-54
2020/12/19 09:50:08;;;;;;;11.88;6.72;;;8.90;99.90;;;;;;4995750;28;20042;-52
2020/12/19 09:52:34;;;;;;;17.50;7.53;;;8.90;99.90;;;;;;4986756;28;20050;-54
2020/12/19 09:55:00;;;;;;;12.50;7.30;;;8.90;99.90;;;;;;4973321;28;20459;-53
2020/12/19 09:57:25;;;;;;;15.32;7.65;;;8.90;99.90;;;;;;4976678;28;20026;-53
2020/12/19 09:59:51;;;;;;;14.02;8.25;;;8.90;99.90;;;;;;4989479;28;20038;-54
2020/12/19 10:02:17;;;;;;;24.35;8.00;;;8.90;99.90;;;;;;4981790;28;20089;-52
2020/12/19 10:04:42;;;;;;;15.35;7.85;;;9.00;99.90;;;;;;4975571;28;20164;-49
2020/12/19 10:07:08;;;;;;;14.38;8.05;;;9.00;99.90;;;;;;4978289;28;20038;-54
2020/12/19 10:09:34;;;;;;;14.00;8.43;;;9.00;99.90;;;;;;4987274;28;20058;-53
2020/12/19 10:12:00;;;;;;;17.27;8.57;;;9.10;99.90;;;;;;4986037;28;20041;-55
2020/12/19 10:14:25;;;;;;;14.95;8.57;;;9.20;99.90;;;;;;4987999;28;20041;-58
2020/12/19 10:16:51;;;;;;;16.33;9.05;;;9.10;99.90;;;;;;4972039;28;20430;-58
2020/12/19 10:19:17;;;;;;;14.65;8.45;;;9.10;99.90;;;;;;4978897;28;20033;-54
2020/12/19 10:21:43;;;;;;;16.05;9.52;;;9.20;99.90;;;;;;4991425;28;20040;-56
2020/12/19 10:24:09;;;;;;;18.75;10.35;;;9.20;99.90;;;;;;4984880;28;20059;-56
2020/12/19 10:26:34;;;;;;;25.08;12.65;;;9.30;99.90;;;;;;4971795;28;20105;-56
2020/12/19 10:29:00;;;;;;;28.17;12.93;;;9.30;99.90;;;;;;4980095;28;20037;-54
2020/12/19 10:31:27;;;;;;;27.98;12.20;;;9.40;99.90;;;;;;4983744;28;20090;-58
2020/12/19 10:33:53;;;;;;;21.58;10.32;;;9.40;99.90;;;;;;4974402;28;20038;-50
2020/12/19 10:36:19;;;;;;;24.58;11.95;;;9.50;99.90;;;;;;4993343;28;20124;-55
2020/12/19 10:38:45;;;;;;;27.13;11.70;;;9.70;99.90;;;;;;5002470;28;20049;-53
2020/12/19 10:41:15;;;;;;;17.10;10.57;;;9.80;99.90;;;;;;4997606;28;20026;-51
2020/12/19 10:43:41;;;;;;;20.88;10.45;;;9.90;99.90;;;;;;4997277;28;20099;-57
2020/12/19 10:46:07;;;;;;;20.35;11.45;;;9.90;99.90;;;;;;5008289;28;20045;-55
2020/12/19 10:48:33;;;;;;;34.40;13.05;;;9.90;99.90;;;;;;5004513;28;20030;-55
2020/12/19 10:50:59;;;;;;;24.25;11.55;;;9.90;99.90;;;;;;4994166;28;20046;-54
2020/12/19 10:53:25;;;;;;;18.83;11.27;;;9.90;99.90;;;;;;4989588;28;20035;-57
2020/12/19 10:55:51;;;;;;;16.50;10.40;;;10.00;99.90;;;;;;5000742;28;20034;-56
2020/12/19 10:58:17;;;;;;;19.02;10.57;;;10.00;99.90;;;;;;4982301;28;20473;-50
2020/12/19 11:00:43;;;;;;;24.08;11.52;;;10.00;99.90;;;;;;4991219;28;20030;-56
2020/12/19 11:03:09;;;;;;;18.52;10.35;;;9.90;99.90;;;;;;4990343;28;20089;-53
2020/12/19 11:05:39;;;;;;;23.58;11.52;;;9.90;99.90;;;;;;5005576;28;20038;-54
2020/12/19 11:08:05;;;;;;;28.10;12.90;;;10.00;99.90;;;;;;4991036;28;20030;-53
2020/12/19 11:10:31;;;;;;;18.38;11.25;;;10.10;99.90;;;;;;4981743;28;20041;-57
2020/12/19 11:12:58;;;;;;;21.52;11.88;;;10.30;99.90;;;;;;4988734;28;20061;-57
2020/12/19 11:15:23;;;;;;;24.05;13.82;;;10.40;99.90;;;;;;4988048;28;20050;-57
2020/12/19 11:17:49;;;;;;;21.02;12.73;;;10.40;99.90;;;;;;4989933;28;20461;-56
2020/12/19 11:20:15;;;;;;;20.23;10.52;;;10.20;99.90;;;;;;4993415;28;20117;-52
2020/12/19 11:22:41;;;;;;;18.80;11.00;;;10.20;99.90;;;;;;4993330;28;20047;-57
2020/12/19 11:25:07;;;;;;;15.45;11.30;;;10.20;99.90;;;;;;4993796;28;20045;-58
2020/12/19 11:27:33;;;;;;;19.13;12.38;;;10.20;99.90;;;;;;4998603;28;20323;-56
2020/12/19 11:29:58;;;;;;;18.15;11.93;;;10.20;99.90;;;;;;4992370;28;20036;-55
2020/12/19 11:32:25;;;;;;;18.60;11.05;;;10.10;99.90;;;;;;5010093;28;20041;-52
2020/12/19 11:34:51;;;;;;;15.88;11.10;;;10.10;99.90;;;;;;5002551;28;20042;-54
2020/12/19 11:37:16;;;;;;;18.77;10.70;;;10.00;99.90;;;;;;4990887;28;20409;-55
2020/12/19 11:39:42;;;;;;;22.45;11.15;;;10.00;99.90;;;;;;4999152;28;20160;-54
2020/12/19 11:42:08;;;;;;;19.58;10.85;;;10.00;99.90;;;;;;4989330;28;20069;-61
2020/12/19 11:44:34;;;;;;;26.63;11.75;;;10.10;99.90;;;;;;4988207;28;20083;-55
2020/12/19 11:47:00;;;;;;;23.40;11.88;;;10.10;99.90;;;;;;4987752;28;20034;-54
2020/12/19 11:49:25;;;;;;;26.67;11.18;;;10.10;99.90;;;;;;5002216;28;20045;-54
2020/12/19 11:51:52;;;;;;;31.80;13.85;;;10.10;99.90;;;;;;4984779;28;20040;-53
2020/12/19 11:54:17;;;;;;;28.00;12.82;;;10.10;99.90;;;;;;4983289;28;20029;-55
2020/12/19 11:56:43;;;;;;;25.95;12.55;;;10.10;99.90;;;;;;4984880;28;20038;-52
2020/12/19 11:59:10;;;;;;;21.50;11.88;;;10.10;99.90;;;;;;4979394;28;20034;-56
2020/12/19 12:01:36;;;;;;;18.17;11.43;;;10.20;99.90;;;;;;4986420;28;20532;-58
2020/12/19 12:04:02;;;;;;;20.58;12.95;;;10.20;99.90;;;;;;4987406;28;20061;-56
2020/12/19 12:06:32;;;;;;;31.17;12.70;;;10.30;99.90;;;;;;4985394;28;20086;-58
2020/12/19 12:09:00;;;;;;;21.92;12.38;;;10.20;99.90;;;;;;4980246;28;20049;-58
2020/12/19 12:11:27;;;;;;;25.30;12.93;;;10.20;99.90;;;;;;4970183;28;20125;-58
2020/12/19 12:13:54;;;;;;;24.20;11.48;;;10.20;99.90;;;;;;4984909;28;20038;-55
2020/12/19 12:16:20;;;;;;;18.58;11.48;;;10.20;99.90;;;;;;4989484;28;20034;-56
2020/12/19 12:18:46;;;;;;;24.25;11.85;;;10.20;99.90;;;;;;4989545;28;20030;-57
2020/12/19 12:21:12;;;;;;;18.88;10.77;;;10.20;99.90;;;;;;4989773;28;20076;-51
2020/12/19 12:23:38;;;;;;;17.00;10.40;;;10.20;99.90;;;;;;4989378;28;20098;-55
2020/12/19 12:26:04;;;;;;;16.77;9.23;;;10.20;99.90;;;;;;4984936;28;20038;-59
2020/12/19 12:28:30;;;;;;;13.52;9.52;;;10.30;99.90;;;;;;4989972;28;20045;-57
2020/12/19 12:30:57;;;;;;;17.20;8.98;;;10.30;99.90;;;;;;4985560;28;20380;-56
2020/12/19 12:33:24;;;;;;;18.48;10.93;;;10.30;99.90;;;;;;4986317;28;20026;-56
2020/12/19 12:35:50;;;;;;;17.45;10.80;;;10.20;99.90;;;;;;4984899;28;20467;-57
2020/12/19 12:38:16;;;;;;;18.13;9.70;;;10.20;99.90;;;;;;4980056;28;20035;-57
2020/12/19 12:40:42;;;;;;;19.45;10.32;;;10.20;99.90;;;;;;4977201;28;20039;-57
2020/12/19 12:43:07;;;;;;;21.42;12.80;;;10.20;99.90;;;;;;4988850;28;20138;-57
2020/12/19 12:45:33;;;;;;;19.15;13.20;;;10.20;99.90;;;;;;4988195;28;20134;-56
2020/12/19 12:47:59;;;;;;;18.00;10.93;;;10.20;99.90;;;;;;4981213;28;20054;-56
2020/12/19 12:50:25;;;;;;;19.77;11.15;;;10.20;99.90;;;;;;4986642;28;20034;-57
2020/12/19 12:52:51;;;;;;;20.85;11.82;;;10.20;99.90;;;;;;4978978;28;20027;-55